sensor_id;sensor_type;location;lat;lon;timestamp;P1;durP1;ratioP1;P2;durP2;ratioP2
8889;SDS011;4481;43.406;24.454;2022-12-20T00:01:17;30.20;;;15.83;;
8889;SDS011;4481;43.406;24.454;2022-12-20T00:03:45;27.97;;;17.83;;
8889;SDS011;4481;43.406;24.454;2022-12-20T00:06:14;29.57;;;17.33;;
8889;SDS011;4481;43.406;24.454;2022-12-20T00:08:40;31.97;;;17.87;;
8889;SDS011;4481;43.406;24.454;2022-12-20T00:11:07;30.63;;;17.50;;
8889;SDS011;4481;43.406;24.454;2022-12-20T00:13:34;27.67;;;17.47;;
8889;SDS011;4481;43.406;24.454;2022-12-20T00:16:04;32.60;;;18.23;;
8889;SDS011;4481;43.406;24.454;2022-12-20T00:18:31;34.33;;;18.77;;
8889;SDS011;4481;43.406;24.454;2022-12-20T00:20:58;29.30;;;17.57;;
8889;SDS011;4481;43.406;24.454;2022-12-20T00:23:24;31.17;;;17.40;;
8889;SDS011;4481;43.406;24.454;2022-12-20T00:25:50;30.53;;;17.37;;
8889;SDS011;4481;43.406;24.454;2022-12-20T00:28:17;36.10;;;17.80;;
8889;SDS011;4481;43.406;24.454;2022-12-20T00:30:43;34.87;;;17.47;;
8889;SDS011;4481;43.406;24.454;2022-12-20T00:33:09;29.57;;;17.00;;
8889;SDS011;4481;43.406;24.454;2022-12-20T00:35:35;26.77;;;16.67;;
8889;SDS011;4481;43.406;24.454;2022-12-20T00:38:06;27.77;;;16.97;;
8889;SDS011;4481;43.406;24.454;2022-12-20T00:40:33;33.90;;;17.30;;
8889;SDS011;4481;43.406;24.454;2022-12-20T00:42:59;36.10;;;17.90;;
8889;SDS011;4481;43.406;24.454;2022-12-20T00:45:25;27.87;;;17.00;;
8889;SDS011;4481;43.406;24.454;2022-12-20T00:47:51;27.27;;;16.80;;
8889;SDS011;4481;43.406;24.454;2022-12-20T00:50:17;31.43;;;17.67;;
8889;SDS011;4481;43.406;24.454;2022-12-20T00:52:44;28.20;;;18.07;;
8889;SDS011;4481;43.406;24.454;2022-12-20T00:55:10;30.10;;;17.83;;
8889;SDS011;4481;43.406;24.454;2022-12-20T00:57:36;30.87;;;18.53;;
8889;SDS011;4481;43.406;24.454;2022-12-20T01:00:02;32.17;;;17.73;;
8889;SDS011;4481;43.406;24.454;2022-12-20T01:02:30;23.80;;;16.43;;
8889;SDS011;4481;43.406;24.454;2022-12-20T01:04:56;32.97;;;17.03;;
8889;SDS011;4481;43.406;24.454;2022-12-20T01:07:22;27.80;;;17.33;;
8889;SDS011;4481;43.406;24.454;2022-12-20T01:09:48;27.90;;;16.67;;
8889;SDS011;4481;43.406;24.454;2022-12-20T01:12:15;36.23;;;17.27;;
8889;SDS011;4481;43.406;24.454;2022-12-20T01:14:41;28.00;;;17.40;;
8889;SDS011;4481;43.406;24.454;2022-12-20T01:17:07;27.20;;;16.43;;
8889;SDS011;4481;43.406;24.454;2022-12-20T01:19:34;29.83;;;16.73;;
8889;SDS011;4481;43.406;24.454;2022-12-20T01:22:00;27.27;;;17.17;;
8889;SDS011;4481;43.406;24.454;2022-12-20T01:24:26;28.57;;;17.10;;
8889;SDS011;4481;43.406;24.454;2022-12-20T01:26:52;32.50;;;17.20;;
8889;SDS011;4481;43.406;24.454;2022-12-20T01:29:18;32.40;;;17.93;;
8889;SDS011;4481;43.406;24.454;2022-12-20T01:31:45;35.83;;;18.07;;
8889;SDS011;4481;43.406;24.454;2022-12-20T01:34:11;25.10;;;15.33;;
8889;SDS011;4481;43.406;24.454;2022-12-20T01:36:38;28.53;;;16.47;;
8889;SDS011;4481;43.406;24.454;2022-12-20T01:39:05;25.07;;;15.53;;
8889;SDS011;4481;43.406;24.454;2022-12-20T01:41:34;27.40;;;15.20;;
8889;SDS011;4481;43.406;24.454;2022-12-20T01:44:02;27.33;;;16.80;;
8889;SDS011;4481;43.406;24.454;2022-12-20T01:46:30;26.23;;;17.00;;
8889;SDS011;4481;43.406;24.454;2022-12-20T01:48:58;29.60;;;17.00;;
8889;SDS011;4481;43.406;24.454;2022-12-20T01:51:31;30.03;;;17.47;;
8889;SDS011;4481;43.406;24.454;2022-12-20T01:54:04;29.73;;;18.80;;
8889;SDS011;4481;43.406;24.454;2022-12-20T01:56:35;37.93;;;18.87;;
8889;SDS011;4481;43.406;24.454;2022-12-20T01:59:02;31.07;;;17.93;;
8889;SDS011;4481;43.406;24.454;2022-12-20T02:01:29;34.23;;;18.03;;
8889;SDS011;4481;43.406;24.454;2022-12-20T02:03:55;34.43;;;18.07;;
8889;SDS011;4481;43.406;24.454;2022-12-20T02:06:23;32.90;;;17.10;;
8889;SDS011;4481;43.406;24.454;2022-12-20T02:08:51;32.60;;;19.23;;
8889;SDS011;4481;43.406;24.454;2022-12-20T02:14:13;33.03;;;18.13;;
8889;SDS011;4481;43.406;24.454;2022-12-20T02:16:51;27.93;;;15.83;;
8889;SDS011;4481;43.406;24.454;2022-12-20T02:19:35;28.93;;;16.57;;
8889;SDS011;4481;43.406;24.454;2022-12-20T02:22:22;31.73;;;17.83;;
8889;SDS011;4481;43.406;24.454;2022-12-20T02:27:54;33.13;;;18.77;;
8889;SDS011;4481;43.406;24.454;2022-12-20T02:30:27;36.53;;;20.40;;
8889;SDS011;4481;43.406;24.454;2022-12-20T02:32:59;32.60;;;19.97;;
8889;SDS011;4481;43.406;24.454;2022-12-20T02:35:30;36.50;;;18.70;;
8889;SDS011;4481;43.406;24.454;2022-12-20T02:37:58;32.10;;;17.83;;
8889;SDS011;4481;43.406;24.454;2022-12-20T02:40:26;31.60;;;17.70;;
8889;SDS011;4481;43.406;24.454;2022-12-20T02:42:56;29.90;;;16.93;;
8889;SDS011;4481;43.406;24.454;2022-12-20T02:45:27;30.50;;;18.87;;
8889;SDS011;4481;43.406;24.454;2022-12-20T02:47:59;35.57;;;18.33;;
8889;SDS011;4481;43.406;24.454;2022-12-20T02:50:30;28.53;;;17.07;;
8889;SDS011;4481;43.406;24.454;2022-12-20T02:52:59;30.87;;;17.30;;
8889;SDS011;4481;43.406;24.454;2022-12-20T02:55:28;29.90;;;16.27;;
8889;SDS011;4481;43.406;24.454;2022-12-20T02:58:04;31.37;;;16.53;;
8889;SDS011;4481;43.406;24.454;2022-12-20T03:00:36;32.23;;;18.37;;
8889;SDS011;4481;43.406;24.454;2022-12-20T03:03:05;33.03;;;18.13;;
8889;SDS011;4481;43.406;24.454;2022-12-20T03:05:50;32.03;;;17.83;;
8889;SDS011;4481;43.406;24.454;2022-12-20T03:08:18;35.07;;;19.03;;
8889;SDS011;4481;43.406;24.454;2022-12-20T03:10:45;30.20;;;18.60;;
8889;SDS011;4481;43.406;24.454;2022-12-20T03:13:12;39.93;;;18.50;;
8889;SDS011;4481;43.406;24.454;2022-12-20T03:15:39;33.93;;;19.27;;
8889;SDS011;4481;43.406;24.454;2022-12-20T03:18:05;31.30;;;19.03;;
8889;SDS011;4481;43.406;24.454;2022-12-20T03:20:31;34.93;;;19.50;;
8889;SDS011;4481;43.406;24.454;2022-12-20T03:22:57;35.87;;;20.43;;
8889;SDS011;4481;43.406;24.454;2022-12-20T03:25:24;30.07;;;17.80;;
8889;SDS011;4481;43.406;24.454;2022-12-20T03:27:50;38.93;;;20.50;;
8889;SDS011;4481;43.406;24.454;2022-12-20T03:30:16;33.93;;;19.50;;
8889;SDS011;4481;43.406;24.454;2022-12-20T03:32:43;34.00;;;18.17;;
8889;SDS011;4481;43.406;24.454;2022-12-20T03:35:09;36.40;;;17.17;;
8889;SDS011;4481;43.406;24.454;2022-12-20T03:37:35;32.60;;;18.27;;
8889;SDS011;4481;43.406;24.454;2022-12-20T03:40:02;34.57;;;18.27;;
8889;SDS011;4481;43.406;24.454;2022-12-20T03:42:29;29.20;;;17.10;;
8889;SDS011;4481;43.406;24.454;2022-12-20T03:44:55;33.40;;;17.67;;
8889;SDS011;4481;43.406;24.454;2022-12-20T03:47:21;28.93;;;16.50;;
8889;SDS011;4481;43.406;24.454;2022-12-20T03:49:48;34.13;;;19.27;;
8889;SDS011;4481;43.406;24.454;2022-12-20T03:52:16;31.83;;;19.50;;
8889;SDS011;4481;43.406;24.454;2022-12-20T03:54:42;31.47;;;17.47;;
8889;SDS011;4481;43.406;24.454;2022-12-20T03:57:08;32.00;;;17.07;;
8889;SDS011;4481;43.406;24.454;2022-12-20T03:59:34;34.90;;;19.03;;
8889;SDS011;4481;43.406;24.454;2022-12-20T04:02:00;40.60;;;21.30;;
8889;SDS011;4481;43.406;24.454;2022-12-20T04:04:27;39.20;;;22.80;;
8889;SDS011;4481;43.406;24.454;2022-12-20T04:06:54;38.93;;;22.40;;
8889;SDS011;4481;43.406;24.454;2022-12-20T04:09:20;38.37;;;20.20;;
8889;SDS011;4481;43.406;24.454;2022-12-20T04:11:46;34.43;;;19.43;;
8889;SDS011;4481;43.406;24.454;2022-12-20T04:14:12;38.37;;;19.90;;
8889;SDS011;4481;43.406;24.454;2022-12-20T04:16:38;30.57;;;18.90;;
8889;SDS011;4481;43.406;24.454;2022-12-20T04:19:05;34.27;;;19.37;;
8889;SDS011;4481;43.406;24.454;2022-12-20T04:21:31;33.63;;;19.70;;
8889;SDS011;4481;43.406;24.454;2022-12-20T04:24:00;37.03;;;20.63;;
8889;SDS011;4481;43.406;24.454;2022-12-20T04:26:27;44.20;;;22.07;;
8889;SDS011;4481;43.406;24.454;2022-12-20T04:28:53;39.20;;;21.67;;
8889;SDS011;4481;43.406;24.454;2022-12-20T04:31:19;38.47;;;20.87;;
8889;SDS011;4481;43.406;24.454;2022-12-20T04:33:46;31.23;;;19.20;;
8889;SDS011;4481;43.406;24.454;2022-12-20T04:36:13;33.27;;;19.40;;
8889;SDS011;4481;43.406;24.454;2022-12-20T04:38:39;38.00;;;20.60;;
8889;SDS011;4481;43.406;24.454;2022-12-20T04:41:06;39.03;;;20.60;;
8889;SDS011;4481;43.406;24.454;2022-12-20T04:43:32;37.17;;;20.60;;
8889;SDS011;4481;43.406;24.454;2022-12-20T04:45:59;36.23;;;22.07;;
8889;SDS011;4481;43.406;24.454;2022-12-20T04:48:25;41.93;;;23.27;;
8889;SDS011;4481;43.406;24.454;2022-12-20T04:50:53;50.53;;;27.37;;
8889;SDS011;4481;43.406;24.454;2022-12-20T04:53:19;52.57;;;29.17;;
8889;SDS011;4481;43.406;24.454;2022-12-20T04:56:07;59.43;;;30.07;;
8889;SDS011;4481;43.406;24.454;2022-12-20T04:58:34;44.43;;;27.90;;
8889;SDS011;4481;43.406;24.454;2022-12-20T05:01:00;48.87;;;25.57;;
8889;SDS011;4481;43.406;24.454;2022-12-20T05:03:26;45.93;;;25.10;;
8889;SDS011;4481;43.406;24.454;2022-12-20T05:05:52;50.70;;;24.43;;
8889;SDS011;4481;43.406;24.454;2022-12-20T05:08:18;40.37;;;24.87;;
8889;SDS011;4481;43.406;24.454;2022-12-20T05:10:45;39.53;;;23.23;;
8889;SDS011;4481;43.406;24.454;2022-12-20T05:13:13;43.07;;;24.33;;
8889;SDS011;4481;43.406;24.454;2022-12-20T05:15:39;46.57;;;26.17;;
8889;SDS011;4481;43.406;24.454;2022-12-20T05:18:06;50.87;;;27.00;;
8889;SDS011;4481;43.406;24.454;2022-12-20T05:20:32;40.60;;;26.47;;
8889;SDS011;4481;43.406;24.454;2022-12-20T05:22:58;49.33;;;26.77;;
8889;SDS011;4481;43.406;24.454;2022-12-20T05:25:43;44.77;;;25.77;;
8889;SDS011;4481;43.406;24.454;2022-12-20T05:28:29;46.93;;;26.93;;
8889;SDS011;4481;43.406;24.454;2022-12-20T05:30:56;49.10;;;27.47;;
8889;SDS011;4481;43.406;24.454;2022-12-20T05:33:22;45.40;;;25.53;;
8889;SDS011;4481;43.406;24.454;2022-12-20T05:35:48;48.30;;;26.00;;
8889;SDS011;4481;43.406;24.454;2022-12-20T05:38:14;45.37;;;26.00;;
8889;SDS011;4481;43.406;24.454;2022-12-20T05:40:41;45.53;;;28.17;;
8889;SDS011;4481;43.406;24.454;2022-12-20T05:43:07;52.30;;;27.33;;
8889;SDS011;4481;43.406;24.454;2022-12-20T05:45:34;51.03;;;28.37;;
8889;SDS011;4481;43.406;24.454;2022-12-20T05:48:00;50.57;;;27.50;;
8889;SDS011;4481;43.406;24.454;2022-12-20T05:50:26;47.63;;;26.63;;
8889;SDS011;4481;43.406;24.454;2022-12-20T05:52:53;49.57;;;28.17;;
8889;SDS011;4481;43.406;24.454;2022-12-20T05:55:19;63.43;;;33.43;;
8889;SDS011;4481;43.406;24.454;2022-12-20T05:57:45;67.20;;;34.30;;
8889;SDS011;4481;43.406;24.454;2022-12-20T06:00:12;51.80;;;28.90;;
8889;SDS011;4481;43.406;24.454;2022-12-20T06:02:43;56.33;;;29.87;;
8889;SDS011;4481;43.406;24.454;2022-12-20T06:05:09;54.50;;;30.27;;
8889;SDS011;4481;43.406;24.454;2022-12-20T06:07:35;45.20;;;28.80;;
8889;SDS011;4481;43.406;24.454;2022-12-20T06:10:01;50.23;;;30.43;;
8889;SDS011;4481;43.406;24.454;2022-12-20T06:12:27;62.20;;;30.33;;
8889;SDS011;4481;43.406;24.454;2022-12-20T06:14:54;64.67;;;30.60;;
8889;SDS011;4481;43.406;24.454;2022-12-20T06:17:21;56.70;;;31.77;;
8889;SDS011;4481;43.406;24.454;2022-12-20T06:19:48;51.03;;;30.73;;
8889;SDS011;4481;43.406;24.454;2022-12-20T06:22:14;50.10;;;29.60;;
8889;SDS011;4481;43.406;24.454;2022-12-20T06:24:40;53.47;;;28.13;;
8889;SDS011;4481;43.406;24.454;2022-12-20T06:27:06;54.10;;;27.03;;
8889;SDS011;4481;43.406;24.454;2022-12-20T06:29:32;49.87;;;29.00;;
8889;SDS011;4481;43.406;24.454;2022-12-20T06:32:00;55.00;;;29.10;;
8889;SDS011;4481;43.406;24.454;2022-12-20T06:34:29;61.23;;;28.37;;
8889;SDS011;4481;43.406;24.454;2022-12-20T06:36:56;60.27;;;30.63;;
8889;SDS011;4481;43.406;24.454;2022-12-20T06:39:22;75.83;;;32.70;;
8889;SDS011;4481;43.406;24.454;2022-12-20T06:41:49;87.17;;;34.77;;
8889;SDS011;4481;43.406;24.454;2022-12-20T06:44:15;67.20;;;34.03;;
8889;SDS011;4481;43.406;24.454;2022-12-20T06:46:42;68.60;;;32.13;;
8889;SDS011;4481;43.406;24.454;2022-12-20T06:49:08;58.47;;;33.30;;
8889;SDS011;4481;43.406;24.454;2022-12-20T06:51:35;56.00;;;33.00;;
8889;SDS011;4481;43.406;24.454;2022-12-20T06:54:02;61.20;;;31.80;;
8889;SDS011;4481;43.406;24.454;2022-12-20T06:56:28;62.20;;;32.53;;
8889;SDS011;4481;43.406;24.454;2022-12-20T06:58:54;61.77;;;31.30;;
8889;SDS011;4481;43.406;24.454;2022-12-20T07:01:20;47.07;;;24.37;;
8889;SDS011;4481;43.406;24.454;2022-12-20T07:03:46;49.33;;;24.10;;
8889;SDS011;4481;43.406;24.454;2022-12-20T07:06:12;47.53;;;25.60;;
8889;SDS011;4481;43.406;24.454;2022-12-20T07:08:38;43.47;;;24.87;;
8889;SDS011;4481;43.406;24.454;2022-12-20T07:11:05;37.40;;;21.57;;
8889;SDS011;4481;43.406;24.454;2022-12-20T07:13:32;33.57;;;19.07;;
8889;SDS011;4481;43.406;24.454;2022-12-20T07:15:59;31.73;;;16.53;;
8889;SDS011;4481;43.406;24.454;2022-12-20T07:18:26;33.67;;;18.30;;
8889;SDS011;4481;43.406;24.454;2022-12-20T07:20:52;31.90;;;18.87;;
8889;SDS011;4481;43.406;24.454;2022-12-20T07:23:20;36.80;;;17.37;;
8889;SDS011;4481;43.406;24.454;2022-12-20T07:25:51;26.87;;;15.43;;
8889;SDS011;4481;43.406;24.454;2022-12-20T07:28:20;28.60;;;14.70;;
8889;SDS011;4481;43.406;24.454;2022-12-20T07:30:47;32.33;;;16.00;;
8889;SDS011;4481;43.406;24.454;2022-12-20T07:33:13;37.57;;;18.80;;
8889;SDS011;4481;43.406;24.454;2022-12-20T07:35:39;27.73;;;16.10;;
8889;SDS011;4481;43.406;24.454;2022-12-20T07:38:05;25.33;;;15.23;;
8889;SDS011;4481;43.406;24.454;2022-12-20T07:40:31;29.13;;;14.57;;
8889;SDS011;4481;43.406;24.454;2022-12-20T07:42:58;29.07;;;16.37;;
8889;SDS011;4481;43.406;24.454;2022-12-20T07:45:25;25.63;;;15.07;;
8889;SDS011;4481;43.406;24.454;2022-12-20T07:47:51;26.13;;;15.23;;
8889;SDS011;4481;43.406;24.454;2022-12-20T07:50:17;27.47;;;15.97;;
8889;SDS011;4481;43.406;24.454;2022-12-20T07:52:44;30.57;;;14.37;;
8889;SDS011;4481;43.406;24.454;2022-12-20T07:55:14;25.17;;;14.77;;
8889;SDS011;4481;43.406;24.454;2022-12-20T07:57:41;22.57;;;13.80;;
8889;SDS011;4481;43.406;24.454;2022-12-20T08:00:13;24.90;;;13.60;;
8889;SDS011;4481;43.406;24.454;2022-12-20T08:02:43;27.57;;;15.23;;
8889;SDS011;4481;43.406;24.454;2022-12-20T08:05:13;30.17;;;15.70;;
8889;SDS011;4481;43.406;24.454;2022-12-20T08:07:40;34.73;;;13.83;;
8889;SDS011;4481;43.406;24.454;2022-12-20T08:10:08;29.87;;;15.53;;
8889;SDS011;4481;43.406;24.454;2022-12-20T08:12:37;25.77;;;15.20;;
8889;SDS011;4481;43.406;24.454;2022-12-20T08:15:05;34.87;;;18.07;;
8889;SDS011;4481;43.406;24.454;2022-12-20T08:17:32;33.40;;;18.43;;
8889;SDS011;4481;43.406;24.454;2022-12-20T08:19:59;33.13;;;16.97;;
8889;SDS011;4481;43.406;24.454;2022-12-20T08:22:25;34.97;;;18.37;;
8889;SDS011;4481;43.406;24.454;2022-12-20T08:24:51;28.40;;;17.97;;
8889;SDS011;4481;43.406;24.454;2022-12-20T08:27:18;32.23;;;17.20;;
8889;SDS011;4481;43.406;24.454;2022-12-20T08:29:44;35.13;;;18.50;;
8889;SDS011;4481;43.406;24.454;2022-12-20T08:32:10;32.13;;;18.17;;
8889;SDS011;4481;43.406;24.454;2022-12-20T08:34:38;27.90;;;16.33;;
8889;SDS011;4481;43.406;24.454;2022-12-20T08:37:05;36.37;;;17.20;;
8889;SDS011;4481;43.406;24.454;2022-12-20T08:39:31;32.00;;;17.60;;
8889;SDS011;4481;43.406;24.454;2022-12-20T08:41:59;29.80;;;16.70;;
8889;SDS011;4481;43.406;24.454;2022-12-20T08:44:25;31.57;;;16.20;;
8889;SDS011;4481;43.406;24.454;2022-12-20T08:46:51;28.40;;;17.57;;
8889;SDS011;4481;43.406;24.454;2022-12-20T08:49:18;40.83;;;17.27;;
8889;SDS011;4481;43.406;24.454;2022-12-20T08:51:44;31.87;;;18.73;;
8889;SDS011;4481;43.406;24.454;2022-12-20T08:54:11;35.27;;;20.53;;
8889;SDS011;4481;43.406;24.454;2022-12-20T08:56:37;34.60;;;20.40;;
8889;SDS011;4481;43.406;24.454;2022-12-20T08:59:04;36.47;;;18.33;;
8889;SDS011;4481;43.406;24.454;2022-12-20T09:01:30;29.33;;;17.70;;
8889;SDS011;4481;43.406;24.454;2022-12-20T09:03:57;37.13;;;18.57;;
8889;SDS011;4481;43.406;24.454;2022-12-20T09:06:24;27.97;;;17.87;;
8889;SDS011;4481;43.406;24.454;2022-12-20T09:08:50;33.70;;;20.13;;
8889;SDS011;4481;43.406;24.454;2022-12-20T09:11:18;33.57;;;18.83;;
8889;SDS011;4481;43.406;24.454;2022-12-20T09:13:47;35.40;;;18.30;;
8889;SDS011;4481;43.406;24.454;2022-12-20T09:16:18;30.80;;;15.70;;
8889;SDS011;4481;43.406;24.454;2022-12-20T09:18:47;31.30;;;16.40;;
8889;SDS011;4481;43.406;24.454;2022-12-20T09:21:14;28.50;;;16.37;;
8889;SDS011;4481;43.406;24.454;2022-12-20T09:23:44;26.93;;;16.17;;
8889;SDS011;4481;43.406;24.454;2022-12-20T09:26:11;31.00;;;17.13;;
8889;SDS011;4481;43.406;24.454;2022-12-20T09:28:40;32.80;;;16.17;;
8889;SDS011;4481;43.406;24.454;2022-12-20T09:31:10;30.10;;;17.73;;
8889;SDS011;4481;43.406;24.454;2022-12-20T09:33:38;32.70;;;15.80;;
8889;SDS011;4481;43.406;24.454;2022-12-20T09:36:04;27.90;;;15.03;;
8889;SDS011;4481;43.406;24.454;2022-12-20T09:38:34;30.83;;;17.37;;
8889;SDS011;4481;43.406;24.454;2022-12-20T09:41:01;23.60;;;17.07;;
8889;SDS011;4481;43.406;24.454;2022-12-20T09:43:29;30.23;;;16.43;;
8889;SDS011;4481;43.406;24.454;2022-12-20T09:45:58;23.97;;;15.23;;
8889;SDS011;4481;43.406;24.454;2022-12-20T09:48:27;24.90;;;15.23;;
8889;SDS011;4481;43.406;24.454;2022-12-20T09:50:58;26.13;;;16.43;;
8889;SDS011;4481;43.406;24.454;2022-12-20T09:53:36;31.47;;;17.00;;
8889;SDS011;4481;43.406;24.454;2022-12-20T09:56:11;32.13;;;17.33;;
8889;SDS011;4481;43.406;24.454;2022-12-20T09:58:47;27.67;;;16.07;;
8889;SDS011;4481;43.406;24.454;2022-12-20T10:01:24;21.90;;;15.07;;
8889;SDS011;4481;43.406;24.454;2022-12-20T10:03:52;29.93;;;15.97;;
8889;SDS011;4481;43.406;24.454;2022-12-20T10:06:22;27.07;;;16.43;;
8889;SDS011;4481;43.406;24.454;2022-12-20T10:09:02;26.20;;;15.43;;
8889;SDS011;4481;43.406;24.454;2022-12-20T10:11:43;23.63;;;14.80;;
8889;SDS011;4481;43.406;24.454;2022-12-20T10:14:24;27.17;;;16.50;;
8889;SDS011;4481;43.406;24.454;2022-12-20T10:17:09;28.10;;;17.10;;
8889;SDS011;4481;43.406;24.454;2022-12-20T10:19:46;30.43;;;16.30;;
8889;SDS011;4481;43.406;24.454;2022-12-20T10:22:27;28.27;;;15.27;;
8889;SDS011;4481;43.406;24.454;2022-12-20T10:25:00;27.70;;;16.83;;
8889;SDS011;4481;43.406;24.454;2022-12-20T10:27:39;38.00;;;18.83;;
8889;SDS011;4481;43.406;24.454;2022-12-20T10:30:09;29.93;;;16.90;;
8889;SDS011;4481;43.406;24.454;2022-12-20T10:32:38;24.57;;;16.70;;
8889;SDS011;4481;43.406;24.454;2022-12-20T10:35:15;30.37;;;16.73;;
8889;SDS011;4481;43.406;24.454;2022-12-20T10:37:57;33.97;;;16.93;;
8889;SDS011;4481;43.406;24.454;2022-12-20T10:40:25;21.50;;;12.90;;
8889;SDS011;4481;43.406;24.454;2022-12-20T10:42:52;30.17;;;16.47;;
8889;SDS011;4481;43.406;24.454;2022-12-20T10:45:25;25.80;;;16.07;;
8889;SDS011;4481;43.406;24.454;2022-12-20T10:47:58;27.03;;;16.23;;
8889;SDS011;4481;43.406;24.454;2022-12-20T10:50:25;27.30;;;17.70;;
8889;SDS011;4481;43.406;24.454;2022-12-20T10:53:03;29.40;;;17.53;;
8889;SDS011;4481;43.406;24.454;2022-12-20T10:55:44;26.77;;;15.57;;
8889;SDS011;4481;43.406;24.454;2022-12-20T10:58:12;26.87;;;16.90;;
8889;SDS011;4481;43.406;24.454;2022-12-20T11:00:41;34.57;;;15.90;;
8889;SDS011;4481;43.406;24.454;2022-12-20T11:03:14;28.57;;;16.60;;
8889;SDS011;4481;43.406;24.454;2022-12-20T11:05:51;38.00;;;17.57;;
8889;SDS011;4481;43.406;24.454;2022-12-20T11:08:19;22.27;;;16.03;;
8889;SDS011;4481;43.406;24.454;2022-12-20T11:10:46;28.17;;;15.67;;
8889;SDS011;4481;43.406;24.454;2022-12-20T11:13:22;26.97;;;15.50;;
8889;SDS011;4481;43.406;24.454;2022-12-20T11:15:50;26.10;;;15.90;;
8889;SDS011;4481;43.406;24.454;2022-12-20T11:18:24;34.37;;;17.90;;
8889;SDS011;4481;43.406;24.454;2022-12-20T11:21:02;32.13;;;17.40;;
8889;SDS011;4481;43.406;24.454;2022-12-20T11:23:40;28.77;;;17.10;;
8889;SDS011;4481;43.406;24.454;2022-12-20T11:26:15;27.03;;;16.97;;
8889;SDS011;4481;43.406;24.454;2022-12-20T11:28:54;29.07;;;16.57;;
8889;SDS011;4481;43.406;24.454;2022-12-20T11:31:33;24.63;;;15.57;;
8889;SDS011;4481;43.406;24.454;2022-12-20T11:34:18;30.40;;;16.17;;
8889;SDS011;4481;43.406;24.454;2022-12-20T11:36:59;26.67;;;15.53;;
8889;SDS011;4481;43.406;24.454;2022-12-20T11:39:39;28.23;;;15.40;;
8889;SDS011;4481;43.406;24.454;2022-12-20T11:42:16;36.93;;;17.80;;
8889;SDS011;4481;43.406;24.454;2022-12-20T11:44:55;26.57;;;16.10;;
8889;SDS011;4481;43.406;24.454;2022-12-20T11:47:35;34.93;;;16.63;;
8889;SDS011;4481;43.406;24.454;2022-12-20T11:50:31;32.90;;;13.10;;
8889;SDS011;4481;43.406;24.454;2022-12-20T11:53:06;33.27;;;16.60;;
8889;SDS011;4481;43.406;24.454;2022-12-20T11:55:39;25.90;;;14.77;;
8889;SDS011;4481;43.406;24.454;2022-12-20T11:58:10;25.10;;;15.03;;
8889;SDS011;4481;43.406;24.454;2022-12-20T12:00:42;24.30;;;13.03;;
8889;SDS011;4481;43.406;24.454;2022-12-20T12:03:17;17.37;;;12.17;;
8889;SDS011;4481;43.406;24.454;2022-12-20T12:05:47;22.17;;;12.80;;
8889;SDS011;4481;43.406;24.454;2022-12-20T12:08:19;25.80;;;14.70;;
8889;SDS011;4481;43.406;24.454;2022-12-20T12:10:52;23.93;;;13.50;;
8889;SDS011;4481;43.406;24.454;2022-12-20T12:13:23;21.90;;;15.30;;
8889;SDS011;4481;43.406;24.454;2022-12-20T12:15:52;22.67;;;14.37;;
8889;SDS011;4481;43.406;24.454;2022-12-20T12:18:24;30.70;;;16.57;;
8889;SDS011;4481;43.406;24.454;2022-12-20T12:20:55;33.30;;;17.30;;
8889;SDS011;4481;43.406;24.454;2022-12-20T12:23:28;26.73;;;15.40;;
8889;SDS011;4481;43.406;24.454;2022-12-20T12:26:02;29.73;;;16.07;;
8889;SDS011;4481;43.406;24.454;2022-12-20T12:28:34;25.73;;;14.97;;
8889;SDS011;4481;43.406;24.454;2022-12-20T12:31:02;22.57;;;13.90;;
8889;SDS011;4481;43.406;24.454;2022-12-20T12:33:33;23.43;;;13.60;;
8889;SDS011;4481;43.406;24.454;2022-12-20T12:36:12;24.00;;;13.97;;
8889;SDS011;4481;43.406;24.454;2022-12-20T12:38:51;25.03;;;15.90;;
8889;SDS011;4481;43.406;24.454;2022-12-20T12:41:45;22.13;;;14.43;;
8889;SDS011;4481;43.406;24.454;2022-12-20T12:44:42;25.03;;;13.13;;
8889;SDS011;4481;43.406;24.454;2022-12-20T12:47:17;26.10;;;13.83;;
8889;SDS011;4481;43.406;24.454;2022-12-20T12:49:46;21.80;;;13.27;;
8889;SDS011;4481;43.406;24.454;2022-12-20T12:58:10;24.17;;;14.80;;
8889;SDS011;4481;43.406;24.454;2022-12-20T13:00:49;25.67;;;15.10;;
8889;SDS011;4481;43.406;24.454;2022-12-20T13:03:34;23.07;;;13.13;;
8889;SDS011;4481;43.406;24.454;2022-12-20T13:09:40;25.57;;;16.50;;
8889;SDS011;4481;43.406;24.454;2022-12-20T13:18:28;23.83;;;13.30;;
8889;SDS011;4481;43.406;24.454;2022-12-20T13:35:54;28.37;;;15.40;;
8889;SDS011;4481;43.406;24.454;2022-12-20T13:38:36;25.43;;;15.20;;
8889;SDS011;4481;43.406;24.454;2022-12-20T13:41:29;27.40;;;15.00;;
8889;SDS011;4481;43.406;24.454;2022-12-20T13:44:27;23.50;;;15.40;;
8889;SDS011;4481;43.406;24.454;2022-12-20T13:47:19;30.03;;;16.77;;
8889;SDS011;4481;43.406;24.454;2022-12-20T13:49:54;26.97;;;16.30;;
8889;SDS011;4481;43.406;24.454;2022-12-20T13:52:26;25.13;;;15.23;;
8889;SDS011;4481;43.406;24.454;2022-12-20T13:54:56;26.37;;;13.50;;
8889;SDS011;4481;43.406;24.454;2022-12-20T13:57:28;24.90;;;14.63;;
8889;SDS011;4481;43.406;24.454;2022-12-20T13:59:59;26.07;;;15.90;;
8889;SDS011;4481;43.406;24.454;2022-12-20T14:02:29;24.00;;;14.93;;
8889;SDS011;4481;43.406;24.454;2022-12-20T14:05:00;25.60;;;15.67;;
8889;SDS011;4481;43.406;24.454;2022-12-20T14:07:32;24.60;;;14.87;;
8889;SDS011;4481;43.406;24.454;2022-12-20T14:09:58;23.43;;;14.47;;
8889;SDS011;4481;43.406;24.454;2022-12-20T14:12:26;23.30;;;13.97;;
8889;SDS011;4481;43.406;24.454;2022-12-20T14:14:53;22.97;;;14.37;;
8889;SDS011;4481;43.406;24.454;2022-12-20T14:17:25;26.10;;;15.07;;
8889;SDS011;4481;43.406;24.454;2022-12-20T14:20:04;26.30;;;13.83;;
8889;SDS011;4481;43.406;24.454;2022-12-20T14:22:37;25.80;;;14.67;;
8889;SDS011;4481;43.406;24.454;2022-12-20T14:25:07;27.67;;;15.63;;
8889;SDS011;4481;43.406;24.454;2022-12-20T14:27:36;26.40;;;15.73;;
8889;SDS011;4481;43.406;24.454;2022-12-20T14:30:03;23.80;;;15.97;;
8889;SDS011;4481;43.406;24.454;2022-12-20T14:32:31;29.33;;;16.00;;
8889;SDS011;4481;43.406;24.454;2022-12-20T14:34:57;26.57;;;16.37;;
8889;SDS011;4481;43.406;24.454;2022-12-20T14:37:26;25.13;;;16.07;;
8889;SDS011;4481;43.406;24.454;2022-12-20T14:39:55;26.63;;;15.70;;
8889;SDS011;4481;43.406;24.454;2022-12-20T14:42:25;28.80;;;16.43;;
8889;SDS011;4481;43.406;24.454;2022-12-20T14:45:01;25.77;;;14.80;;
8889;SDS011;4481;43.406;24.454;2022-12-20T14:47:28;20.50;;;13.10;;
8889;SDS011;4481;43.406;24.454;2022-12-20T14:49:56;26.27;;;15.93;;
8889;SDS011;4481;43.406;24.454;2022-12-20T14:52:24;24.30;;;13.10;;
8889;SDS011;4481;43.406;24.454;2022-12-20T14:54:57;22.17;;;14.13;;
8889;SDS011;4481;43.406;24.454;2022-12-20T14:57:28;34.90;;;19.00;;
8889;SDS011;4481;43.406;24.454;2022-12-20T14:59:58;25.10;;;14.67;;
8889;SDS011;4481;43.406;24.454;2022-12-20T15:02:32;24.17;;;14.13;;
8889;SDS011;4481;43.406;24.454;2022-12-20T15:05:00;30.43;;;17.97;;
8889;SDS011;4481;43.406;24.454;2022-12-20T15:07:33;34.70;;;19.83;;
8889;SDS011;4481;43.406;24.454;2022-12-20T15:09:59;32.20;;;20.03;;
8889;SDS011;4481;43.406;24.454;2022-12-20T15:12:25;27.77;;;17.67;;
8889;SDS011;4481;43.406;24.454;2022-12-20T15:14:51;24.30;;;15.70;;
8889;SDS011;4481;43.406;24.454;2022-12-20T15:17:17;25.20;;;15.50;;
8889;SDS011;4481;43.406;24.454;2022-12-20T15:19:43;31.50;;;16.73;;
8889;SDS011;4481;43.406;24.454;2022-12-20T15:22:12;33.07;;;17.57;;
8889;SDS011;4481;43.406;24.454;2022-12-20T15:24:40;32.67;;;17.80;;